sensor_id;sensor_type;location;lat;lon;timestamp;pressure;altitude;pressure_sealevel;temperature;humidity
11077;BME280;5591;42.626;23.380;2023-03-31T00:00:19;94163.72;;;11.65;56.87
11077;BME280;5591;42.626;23.380;2023-03-31T00:02:46;94164.75;;;11.71;56.43
11077;BME280;5591;42.626;23.380;2023-03-31T00:05:13;94155.56;;;11.54;57.04
11077;BME280;5591;42.626;23.380;2023-03-31T00:07:42;94156.06;;;11.64;56.93
11077;BME280;5591;42.626;23.380;2023-03-31T00:10:10;94168.19;;;11.65;56.82
11077;BME280;5591;42.626;23.380;2023-03-31T00:12:37;94164.34;;;11.61;57.22
11077;BME280;5591;42.626;23.380;2023-03-31T00:15:06;94160.91;;;11.67;56.64
11077;BME280;5591;42.626;23.380;2023-03-31T00:17:33;94158.09;;;11.68;56.83
11077;BME280;5591;42.626;23.380;2023-03-31T00:19:59;94159.72;;;11.76;56.47
11077;BME280;5591;42.626;23.380;2023-03-31T00:22:30;94158.91;;;11.75;56.85
11077;BME280;5591;42.626;23.380;2023-03-31T00:24:56;94152.63;;;11.70;56.81
11077;BME280;5591;42.626;23.380;2023-03-31T00:27:23;94151.28;;;11.87;56.65
11077;BME280;5591;42.626;23.380;2023-03-31T00:29:52;94150.25;;;11.81;56.45
11077;BME280;5591;42.626;23.380;2023-03-31T00:32:21;94151.47;;;11.92;56.22
11077;BME280;5591;42.626;23.380;2023-03-31T00:34:48;94154.53;;;11.95;56.44
11077;BME280;5591;42.626;23.380;2023-03-31T00:37:15;94152.34;;;12.05;55.94
11077;BME280;5591;42.626;23.380;2023-03-31T00:39:41;94139.41;;;12.10;55.87
11077;BME280;5591;42.626;23.380;2023-03-31T00:42:09;94080.69;;;11.77;55.87
11077;BME280;5591;42.626;23.380;2023-03-31T00:44:38;94126.84;;;12.06;55.63
11077;BME280;5591;42.626;23.380;2023-03-31T00:47:27;94141.88;;;12.25;55.38
11077;BME280;5591;42.626;23.380;2023-03-31T00:49:56;94146.13;;;12.26;55.24
11077;BME280;5591;42.626;23.380;2023-03-31T00:52:27;94133.72;;;12.07;55.74
11077;BME280;5591;42.626;23.380;2023-03-31T00:55:02;94136.56;;;12.18;56.09
11077;BME280;5591;42.626;23.380;2023-03-31T00:57:33;94142.06;;;12.49;54.92
11077;BME280;5591;42.626;23.380;2023-03-31T01:00:05;94105.44;;;12.41;54.38
11077;BME280;5591;42.626;23.380;2023-03-31T01:02:40;94114.97;;;12.36;55.46
11077;BME280;5591;42.626;23.380;2023-03-31T01:05:16;94121.94;;;11.83;56.79
11077;BME280;5591;42.626;23.380;2023-03-31T01:07:47;94147.72;;;12.20;57.54
11077;BME280;5591;42.626;23.380;2023-03-31T01:10:16;94118.38;;;12.42;56.09
11077;BME280;5591;42.626;23.380;2023-03-31T01:12:45;94104.03;;;12.32;55.61
11077;BME280;5591;42.626;23.380;2023-03-31T01:15:13;94118.97;;;12.25;56.91
11077;BME280;5591;42.626;23.380;2023-03-31T01:17:42;94124.66;;;12.35;56.73
11077;BME280;5591;42.626;23.380;2023-03-31T01:20:18;94116.97;;;12.72;56.04
11077;BME280;5591;42.626;23.380;2023-03-31T01:23:10;94109.66;;;12.87;55.42
11077;BME280;5591;42.626;23.380;2023-03-31T01:26:26;94113.31;;;12.80;54.96
11077;BME280;5591;42.626;23.380;2023-03-31T01:28:59;94112.13;;;12.69;56.08
11077;BME280;5591;42.626;23.380;2023-03-31T01:32:03;94108.47;;;12.70;56.21
11077;BME280;5591;42.626;23.380;2023-03-31T01:35:08;94128.50;;;12.26;57.74
11077;BME280;5591;42.626;23.380;2023-03-31T01:41:07;94127.72;;;12.45;57.99
11077;BME280;5591;42.626;23.380;2023-03-31T01:43:43;94137.59;;;12.17;59.45
11077;BME280;5591;42.626;23.380;2023-03-31T01:46:18;94149.78;;;12.57;57.80
11077;BME280;5591;42.626;23.380;2023-03-31T01:48:56;94148.97;;;12.69;57.23
11077;BME280;5591;42.626;23.380;2023-03-31T01:51:33;94156.28;;;12.74;57.32
11077;BME280;5591;42.626;23.380;2023-03-31T01:54:07;94149.19;;;12.61;57.38
11077;BME280;5591;42.626;23.380;2023-03-31T01:56:41;94090.41;;;11.96;58.67
11077;BME280;5591;42.626;23.380;2023-03-31T01:59:11;94143.31;;;12.79;56.11
11077;BME280;5591;42.626;23.380;2023-03-31T02:01:42;94140.44;;;12.29;58.14
11077;BME280;5591;42.626;23.380;2023-03-31T02:04:16;94145.94;;;11.61;61.88
11077;BME280;5591;42.626;23.380;2023-03-31T02:06:46;94143.50;;;12.32;60.71
11077;BME280;5591;42.626;23.380;2023-03-31T02:09:22;94122.44;;;12.38;58.90
11077;BME280;5591;42.626;23.380;2023-03-31T02:11:51;94157.25;;;12.28;58.70
11077;BME280;5591;42.626;23.380;2023-03-31T02:14:22;94148.06;;;11.98;61.02
11077;BME280;5591;42.626;23.380;2023-03-31T02:16:53;94157.06;;;12.48;58.48
11077;BME280;5591;42.626;23.380;2023-03-31T02:19:24;94162.38;;;11.82;60.39
11077;BME280;5591;42.626;23.380;2023-03-31T02:21:53;94163.38;;;11.75;62.00
11077;BME280;5591;42.626;23.380;2023-03-31T02:24:23;94175.88;;;12.32;60.33
11077;BME280;5591;42.626;23.380;2023-03-31T02:26:55;94179.44;;;11.93;62.24
11077;BME280;5591;42.626;23.380;2023-03-31T02:29:22;94186.66;;;11.44;65.31
11077;BME280;5591;42.626;23.380;2023-03-31T02:31:55;94174.78;;;12.01;64.72
11077;BME280;5591;42.626;23.380;2023-03-31T02:34:23;94183.78;;;12.39;62.38
11077;BME280;5591;42.626;23.380;2023-03-31T02:36:50;94187.72;;;11.56;68.96
11077;BME280;5591;42.626;23.380;2023-03-31T02:39:20;94205.06;;;11.50;72.13
11077;BME280;5591;42.626;23.380;2023-03-31T02:41:49;94181.31;;;11.58;75.55
11077;BME280;5591;42.626;23.380;2023-03-31T02:44:17;94183.72;;;11.60;78.64
11077;BME280;5591;42.626;23.380;2023-03-31T02:46:45;94185.72;;;11.24;87.02
11077;BME280;5591;42.626;23.380;2023-03-31T02:49:13;94187.94;;;11.27;90.24
11077;BME280;5591;42.626;23.380;2023-03-31T02:52:05;94186.78;;;11.02;97.01
11077;BME280;5591;42.626;23.380;2023-03-31T03:00:53;94166.69;;;11.15;100.00
11077;BME280;5591;42.626;23.380;2023-03-31T03:03:33;94157.72;;;11.37;100.00
11077;BME280;5591;42.626;23.380;2023-03-31T03:06:08;94162.41;;;11.08;100.00
11077;BME280;5591;42.626;23.380;2023-03-31T03:11:38;94154.53;;;12.02;99.97
11077;BME280;5591;42.626;23.380;2023-03-31T03:14:16;94155.41;;;12.28;97.77
11077;BME280;5591;42.626;23.380;2023-03-31T03:16:49;94141.03;;;12.24;97.73
11077;BME280;5591;42.626;23.380;2023-03-31T03:19:20;94127.50;;;12.40;96.65
11077;BME280;5591;42.626;23.380;2023-03-31T03:21:48;94113.69;;;11.93;96.64
11077;BME280;5591;42.626;23.380;2023-03-31T03:24:16;94125.00;;;11.93;97.74
11077;BME280;5591;42.626;23.380;2023-03-31T03:26:43;94126.59;;;11.88;99.19
11077;BME280;5591;42.626;23.380;2023-03-31T03:29:10;94119.34;;;11.96;99.79
11077;BME280;5591;42.626;23.380;2023-03-31T03:31:39;94121.91;;;11.77;100.00
11077;BME280;5591;42.626;23.380;2023-03-31T03:34:07;94115.22;;;11.68;100.00
11077;BME280;5591;42.626;23.380;2023-03-31T03:36:35;94121.66;;;11.65;100.00
11077;BME280;5591;42.626;23.380;2023-03-31T03:39:02;94124.00;;;12.01;100.00
11077;BME280;5591;42.626;23.380;2023-03-31T03:41:29;94131.06;;;11.94;100.00
11077;BME280;5591;42.626;23.380;2023-03-31T03:43:57;94117.13;;;12.00;100.00
11077;BME280;5591;42.626;23.380;2023-03-31T03:46:24;94115.13;;;12.15;100.00
11077;BME280;5591;42.626;23.380;2023-03-31T03:48:51;94123.13;;;11.81;100.00
11077;BME280;5591;42.626;23.380;2023-03-31T03:51:19;94116.69;;;11.96;100.00
11077;BME280;5591;42.626;23.380;2023-03-31T03:53:46;94109.84;;;12.02;100.00
11077;BME280;5591;42.626;23.380;2023-03-31T03:56:12;94108.25;;;12.14;100.00
11077;BME280;5591;42.626;23.380;2023-03-31T03:58:39;94116.75;;;12.29;100.00
11077;BME280;5591;42.626;23.380;2023-03-31T04:01:06;94112.94;;;12.25;100.00
11077;BME280;5591;42.626;23.380;2023-03-31T04:03:33;94107.03;;;12.29;100.00
11077;BME280;5591;42.626;23.380;2023-03-31T04:06:00;94092.66;;;12.19;100.00
11077;BME280;5591;42.626;23.380;2023-03-31T04:08:28;94110.72;;;12.41;100.00
11077;BME280;5591;42.626;23.380;2023-03-31T04:10:54;94103.81;;;12.53;100.00
11077;BME280;5591;42.626;23.380;2023-03-31T04:13:21;94115.34;;;11.13;100.00
11077;BME280;5591;42.626;23.380;2023-03-31T04:15:48;94119.63;;;10.86;100.00
11077;BME280;5591;42.626;23.380;2023-03-31T04:18:15;94113.00;;;11.71;100.00
11077;BME280;5591;42.626;23.380;2023-03-31T04:20:47;94132.13;;;12.25;98.57
11077;BME280;5591;42.626;23.380;2023-03-31T04:23:19;94154.28;;;11.77;99.12
11077;BME280;5591;42.626;23.380;2023-03-31T04:25:49;94114.66;;;11.85;99.50
11077;BME280;5591;42.626;23.380;2023-03-31T04:28:16;94122.63;;;12.24;96.94
11077;BME280;5591;42.626;23.380;2023-03-31T04:30:44;94131.94;;;12.27;97.38
11077;BME280;5591;42.626;23.380;2023-03-31T04:33:11;94111.50;;;12.54;96.20
11077;BME280;5591;42.626;23.380;2023-03-31T04:35:40;94122.25;;;12.53;94.04
11077;BME280;5591;42.626;23.380;2023-03-31T04:38:18;94124.69;;;12.67;94.21
11077;BME280;5591;42.626;23.380;2023-03-31T04:40:46;94120.22;;;12.68;95.15
11077;BME280;5591;42.626;23.380;2023-03-31T04:43:16;94111.13;;;12.57;95.79
11077;BME280;5591;42.626;23.380;2023-03-31T04:45:43;94116.97;;;12.59;97.02
11077;BME280;5591;42.626;23.380;2023-03-31T04:48:10;94093.91;;;12.55;94.28
11077;BME280;5591;42.626;23.380;2023-03-31T04:50:37;94110.91;;;12.78;95.37
11077;BME280;5591;42.626;23.380;2023-03-31T04:53:04;94112.50;;;12.53;95.04
11077;BME280;5591;42.626;23.380;2023-03-31T04:55:31;94118.19;;;12.57;96.15
11077;BME280;5591;42.626;23.380;2023-03-31T04:57:59;94119.63;;;12.66;95.04
11077;BME280;5591;42.626;23.380;2023-03-31T05:00:27;94120.22;;;12.55;93.86
11077;BME280;5591;42.626;23.380;2023-03-31T05:02:54;94121.03;;;12.49;94.97
11077;BME280;5591;42.626;23.380;2023-03-31T05:05:21;94023.44;;;12.18;93.64
11077;BME280;5591;42.626;23.380;2023-03-31T05:07:48;94096.94;;;12.58;93.85
11077;BME280;5591;42.626;23.380;2023-03-31T05:10:15;94103.00;;;12.85;91.54
11077;BME280;5591;42.626;23.380;2023-03-31T05:12:41;94094.50;;;12.96;91.55
11077;BME280;5591;42.626;23.380;2023-03-31T05:15:09;94090.03;;;12.70;91.41
11077;BME280;5591;42.626;23.380;2023-03-31T05:17:37;94087.59;;;12.82;92.80
11077;BME280;5591;42.626;23.380;2023-03-31T05:20:05;94060.88;;;12.78;93.20
11077;BME280;5591;42.626;23.380;2023-03-31T05:22:34;94005.16;;;12.75;88.93
11077;BME280;5591;42.626;23.380;2023-03-31T05:25:01;94060.75;;;13.24;89.12
11077;BME280;5591;42.626;23.380;2023-03-31T05:27:28;94073.50;;;13.33;89.01
11077;BME280;5591;42.626;23.380;2023-03-31T05:29:55;94068.31;;;13.07;92.60
11077;BME280;5591;42.626;23.380;2023-03-31T05:32:22;94070.50;;;13.23;92.26
11077;BME280;5591;42.626;23.380;2023-03-31T05:34:51;94048.38;;;13.31;91.90
11077;BME280;5591;42.626;23.380;2023-03-31T05:37:21;94064.97;;;13.38;91.38
11077;BME280;5591;42.626;23.380;2023-03-31T05:39:48;94086.09;;;13.31;90.89
11077;BME280;5591;42.626;23.380;2023-03-31T05:42:15;94061.84;;;13.03;92.14
11077;BME280;5591;42.626;23.380;2023-03-31T05:44:41;94050.59;;;13.34;91.41
11077;BME280;5591;42.626;23.380;2023-03-31T05:47:08;94066.38;;;13.47;90.76
11077;BME280;5591;42.626;23.380;2023-03-31T05:49:35;94063.81;;;13.21;92.89
11077;BME280;5591;42.626;23.380;2023-03-31T05:52:04;93981.09;;;13.22;91.60
11077;BME280;5591;42.626;23.380;2023-03-31T05:54:31;94071.06;;;14.13;90.47
11077;BME280;5591;42.626;23.380;2023-03-31T05:56:58;94056.56;;;14.53;87.14
11077;BME280;5591;42.626;23.380;2023-03-31T05:59:25;94056.94;;;14.32;86.92
11077;BME280;5591;42.626;23.380;2023-03-31T06:01:52;94070.03;;;14.70;87.37
11077;BME280;5591;42.626;23.380;2023-03-31T06:04:18;94066.50;;;14.58;85.72
11077;BME280;5591;42.626;23.380;2023-03-31T06:06:45;94067.50;;;14.99;82.33
11077;BME280;5591;42.626;23.380;2023-03-31T06:09:16;94096.66;;;15.53;78.83
11077;BME280;5591;42.626;23.380;2023-03-31T06:11:43;94075.59;;;15.94;74.32
11077;BME280;5591;42.626;23.380;2023-03-31T06:14:10;94074.28;;;14.95;79.84
11077;BME280;5591;42.626;23.380;2023-03-31T06:16:37;94082.66;;;15.28;78.75
11077;BME280;5591;42.626;23.380;2023-03-31T06:19:04;94076.59;;;15.63;76.14
11077;BME280;5591;42.626;23.380;2023-03-31T06:21:31;94078.88;;;15.60;74.60
11077;BME280;5591;42.626;23.380;2023-03-31T06:23:58;94065.94;;;15.52;75.40
11077;BME280;5591;42.626;23.380;2023-03-31T06:26:27;94069.25;;;15.65;75.88
11077;BME280;5591;42.626;23.380;2023-03-31T06:28:54;94063.59;;;15.62;73.89
11077;BME280;5591;42.626;23.380;2023-03-31T06:31:22;94074.38;;;15.24;75.47
11077;BME280;5591;42.626;23.380;2023-03-31T06:33:49;94069.41;;;15.34;76.36
11077;BME280;5591;42.626;23.380;2023-03-31T06:36:17;94041.94;;;15.17;74.09
11077;BME280;5591;42.626;23.380;2023-03-31T06:38:45;94076.03;;;15.43;72.92
11077;BME280;5591;42.626;23.380;2023-03-31T06:41:13;94085.47;;;15.15;75.74
11077;BME280;5591;42.626;23.380;2023-03-31T06:43:42;94078.41;;;15.09;75.14
11077;BME280;5591;42.626;23.380;2023-03-31T06:46:09;94083.41;;;15.71;74.10
11077;BME280;5591;42.626;23.380;2023-03-31T06:48:35;94071.03;;;16.01;71.50
11077;BME280;5591;42.626;23.380;2023-03-31T06:51:04;94075.38;;;15.48;74.99
11077;BME280;5591;42.626;23.380;2023-03-31T06:53:31;94074.91;;;15.69;75.67
11077;BME280;5591;42.626;23.380;2023-03-31T06:55:59;94084.38;;;15.76;74.61
11077;BME280;5591;42.626;23.380;2023-03-31T06:58:26;94076.34;;;16.12;73.66
11077;BME280;5591;42.626;23.380;2023-03-31T07:00:54;94078.44;;;16.40;71.45
11077;BME280;5591;42.626;23.380;2023-03-31T07:03:20;94103.81;;;16.29;73.52
11077;BME280;5591;42.626;23.380;2023-03-31T07:05:49;94074.88;;;16.69;70.42
11077;BME280;5591;42.626;23.380;2023-03-31T07:08:17;94055.59;;;16.39;69.59
11077;BME280;5591;42.626;23.380;2023-03-31T07:10:44;94048.41;;;16.28;71.53
11077;BME280;5591;42.626;23.380;2023-03-31T07:13:13;94048.84;;;16.54;70.17
11077;BME280;5591;42.626;23.380;2023-03-31T07:15:40;93978.88;;;16.21;68.15
11077;BME280;5591;42.626;23.380;2023-03-31T07:18:08;94044.47;;;16.60;68.87
11077;BME280;5591;42.626;23.380;2023-03-31T07:20:37;94028.00;;;16.58;68.30
11077;BME280;5591;42.626;23.380;2023-03-31T07:23:04;94026.38;;;16.16;71.69
11077;BME280;5591;42.626;23.380;2023-03-31T07:25:31;94026.59;;;16.44;70.41
11077;BME280;5591;42.626;23.380;2023-03-31T07:27:58;94024.03;;;15.96;72.41
11077;BME280;5591;42.626;23.380;2023-03-31T07:30:25;94021.91;;;16.16;71.44
11077;BME280;5591;42.626;23.380;2023-03-31T07:32:52;94011.31;;;16.28;69.45
11077;BME280;5591;42.626;23.380;2023-03-31T07:35:21;93950.13;;;16.36;68.24
11077;BME280;5591;42.626;23.380;2023-03-31T07:37:49;94004.38;;;17.02;65.89
11077;BME280;5591;42.626;23.380;2023-03-31T07:40:18;94004.44;;;17.30;63.93
11077;BME280;5591;42.626;23.380;2023-03-31T07:42:46;94014.31;;;16.84;64.37
11077;BME280;5591;42.626;23.380;2023-03-31T07:45:13;93942.13;;;17.05;62.99
11077;BME280;5591;42.626;23.380;2023-03-31T07:47:41;94007.31;;;17.79;60.82
11077;BME280;5591;42.626;23.380;2023-03-31T07:50:09;93929.47;;;17.63;59.55
11077;BME280;5591;42.626;23.380;2023-03-31T07:52:37;93987.97;;;18.12;58.09
11077;BME280;5591;42.626;23.380;2023-03-31T07:55:05;93988.66;;;17.91;56.02
11077;BME280;5591;42.626;23.380;2023-03-31T07:57:32;93996.00;;;18.28;55.88
11077;BME280;5591;42.626;23.380;2023-03-31T07:59:58;93992.28;;;18.62;54.95
11077;BME280;5591;42.626;23.380;2023-03-31T08:02:26;93992.06;;;18.64;54.83
11077;BME280;5591;42.626;23.380;2023-03-31T08:04:53;93988.09;;;18.83;53.37
11077;BME280;5591;42.626;23.380;2023-03-31T08:07:20;93977.34;;;18.56;53.38
11077;BME280;5591;42.626;23.380;2023-03-31T08:09:48;93980.88;;;19.00;53.41
11077;BME280;5591;42.626;23.380;2023-03-31T08:12:15;93973.22;;;19.63;51.50
11077;BME280;5591;42.626;23.380;2023-03-31T08:14:42;93971.03;;;19.17;50.57
11077;BME280;5591;42.626;23.380;2023-03-31T08:17:09;93945.28;;;20.13;48.92
11077;BME280;5591;42.626;23.380;2023-03-31T08:19:36;93964.44;;;19.41;48.67
11077;BME280;5591;42.626;23.380;2023-03-31T08:22:03;93954.91;;;19.45;48.52
11077;BME280;5591;42.626;23.380;2023-03-31T08:24:30;93972.41;;;17.87;48.90
11077;BME280;5591;42.626;23.380;2023-03-31T08:26:58;93959.91;;;17.32;50.21
11077;BME280;5591;42.626;23.380;2023-03-31T08:29:25;93965.59;;;17.24;50.23
11077;BME280;5591;42.626;23.380;2023-03-31T08:31:52;93949.94;;;17.00;51.02
11077;BME280;5591;42.626;23.380;2023-03-31T08:34:19;93956.88;;;17.01;50.59
11077;BME280;5591;42.626;23.380;2023-03-31T08:36:51;93950.59;;;16.67;50.72
11077;BME280;5591;42.626;23.380;2023-03-31T08:39:18;93933.19;;;16.37;51.59
11077;BME280;5591;42.626;23.380;2023-03-31T08:41:53;93943.03;;;16.87;50.69
11077;BME280;5591;42.626;23.380;2023-03-31T08:44:27;93947.34;;;16.65;51.14
11077;BME280;5591;42.626;23.380;2023-03-31T08:46:57;93962.13;;;15.97;51.64
11077;BME280;5591;42.626;23.380;2023-03-31T08:49:25;93959.41;;;15.74;51.89
11077;BME280;5591;42.626;23.380;2023-03-31T08:51:57;93956.69;;;15.81;51.75
11077;BME280;5591;42.626;23.380;2023-03-31T08:54:31;93943.06;;;16.30;51.27
11077;BME280;5591;42.626;23.380;2023-03-31T08:56:59;93942.41;;;16.46;50.58
11077;BME280;5591;42.626;23.380;2023-03-31T08:59:29;93942.16;;;16.70;50.26
11077;BME280;5591;42.626;23.380;2023-03-31T09:02:04;93934.22;;;17.61;47.85
11077;BME280;5591;42.626;23.380;2023-03-31T09:04:49;93923.34;;;16.95;49.12
11077;BME280;5591;42.626;23.380;2023-03-31T09:07:25;93925.56;;;16.63;49.30
11077;BME280;5591;42.626;23.380;2023-03-31T09:10:02;93902.44;;;16.47;48.68
11077;BME280;5591;42.626;23.380;2023-03-31T09:12:45;93909.84;;;16.96;48.51
11077;BME280;5591;42.626;23.380;2023-03-31T09:15:24;93917.72;;;17.19;48.82
11077;BME280;5591;42.626;23.380;2023-03-31T09:17:53;93915.06;;;17.19;48.38
11077;BME280;5591;42.626;23.380;2023-03-31T09:20:22;93847.31;;;16.84;48.19
11077;BME280;5591;42.626;23.380;2023-03-31T09:22:59;93912.75;;;16.83;48.27
11077;BME280;5591;42.626;23.380;2023-03-31T09:25:30;93926.03;;;17.23;48.21
11077;BME280;5591;42.626;23.380;2023-03-31T09:28:00;93920.63;;;17.57;47.19
11077;BME280;5591;42.626;23.380;2023-03-31T09:30:32;93926.69;;;17.30;47.79
11077;BME280;5591;42.626;23.380;2023-03-31T09:33:08;93942.59;;;16.90;47.83
11077;BME280;5591;42.626;23.380;2023-03-31T09:35:37;93924.59;;;17.87;46.40
11077;BME280;5591;42.626;23.380;2023-03-31T09:38:04;93923.19;;;17.52;47.00
11077;BME280;5591;42.626;23.380;2023-03-31T09:40:32;93930.28;;;17.24;47.42
11077;BME280;5591;42.626;23.380;2023-03-31T09:43:03;93931.41;;;18.11;46.33
11077;BME280;5591;42.626;23.380;2023-03-31T09:45:32;93948.66;;;17.81;46.37
11077;BME280;5591;42.626;23.380;2023-03-31T09:48:02;93925.13;;;18.17;46.18
11077;BME280;5591;42.626;23.380;2023-03-31T09:50:35;93933.25;;;17.66;46.94
11077;BME280;5591;42.626;23.380;2023-03-31T09:53:14;93911.97;;;17.78;46.94
11077;BME280;5591;42.626;23.380;2023-03-31T09:55:45;93917.22;;;17.89;47.06
11077;BME280;5591;42.626;23.380;2023-03-31T09:58:15;93909.59;;;17.49;47.01
11077;BME280;5591;42.626;23.380;2023-03-31T10:00:58;93901.09;;;17.35;47.14
11077;BME280;5591;42.626;23.380;2023-03-31T10:03:27;93924.63;;;17.32;47.70
11077;BME280;5591;42.626;23.380;2023-03-31T10:05:56;93910.72;;;17.53;47.07
11077;BME280;5591;42.626;23.380;2023-03-31T10:08:28;93909.88;;;17.80;47.06
11077;BME280;5591;42.626;23.380;2023-03-31T10:11:06;93898.31;;;17.86;46.53
11077;BME280;5591;42.626;23.380;2023-03-31T10:13:38;93929.28;;;17.80;47.00
11077;BME280;5591;42.626;23.380;2023-03-31T10:16:12;93886.00;;;17.96;47.02
11077;BME280;5591;42.626;23.380;2023-03-31T10:18:42;93877.56;;;18.16;46.18
11077;BME280;5591;42.626;23.380;2023-03-31T10:21:19;93904.56;;;18.62;45.79
11077;BME280;5591;42.626;23.380;2023-03-31T10:23:46;93894.53;;;17.98;46.23
11077;BME280;5591;42.626;23.380;2023-03-31T10:26:17;93885.03;;;18.52;45.67
11077;BME280;5591;42.626;23.380;2023-03-31T10:28:47;93891.25;;;19.00;44.75
11077;BME280;5591;42.626;23.380;2023-03-31T10:31:16;93887.69;;;18.19;46.24
11077;BME280;5591;42.626;23.380;2023-03-31T10:33:45;93884.22;;;18.18;45.88
11077;BME280;5591;42.626;23.380;2023-03-31T10:36:20;93891.78;;;18.59;45.03
11077;BME280;5591;42.626;23.380;2023-03-31T10:38:49;93874.09;;;17.82;46.01
11077;BME280;5591;42.626;23.380;2023-03-31T10:41:18;93873.34;;;18.91;44.66
11077;BME280;5591;42.626;23.380;2023-03-31T10:43:48;93891.16;;;19.33;44.30
11077;BME280;5591;42.626;23.380;2023-03-31T10:46:17;93864.03;;;18.93;44.60
11077;BME280;5591;42.626;23.380;2023-03-31T10:48:44;93857.22;;;19.45;43.78
11077;BME280;5591;42.626;23.380;2023-03-31T10:51:15;93866.88;;;18.87;44.26
11077;BME280;5591;42.626;23.380;2023-03-31T10:53:44;93866.34;;;19.06;44.15
11077;BME280;5591;42.626;23.380;2023-03-31T10:56:22;93862.41;;;19.57;43.75
11077;BME280;5591;42.626;23.380;2023-03-31T10:59:12;93853.56;;;19.51;43.41
11077;BME280;5591;42.626;23.380;2023-03-31T11:01:53;93861.31;;;19.10;44.12
11077;BME280;5591;42.626;23.380;2023-03-31T11:04:39;93768.63;;;18.75;43.82
11077;BME280;5591;42.626;23.380;2023-03-31T11:07:19;93847.91;;;19.21;43.98
11077;BME280;5591;42.626;23.380;2023-03-31T11:10:02;93844.09;;;18.53;44.74
11077;BME280;5591;42.626;23.380;2023-03-31T11:12:37;93796.31;;;18.79;44.69
11077;BME280;5591;42.626;23.380;2023-03-31T11:15:14;93843.63;;;18.77;44.21
11077;BME280;5591;42.626;23.380;2023-03-31T11:17:57;93847.91;;;18.24;44.86
11077;BME280;5591;42.626;23.380;2023-03-31T11:20:31;93811.06;;;19.13;43.56
11077;BME280;5591;42.626;23.380;2023-03-31T11:23:09;93835.38;;;19.43;43.65
11077;BME280;5591;42.626;23.380;2023-03-31T11:25:39;93817.94;;;19.09;43.67
11077;BME280;5591;42.626;23.380;2023-03-31T11:28:37;93824.66;;;18.69;44.38
11077;BME280;5591;42.626;23.380;2023-03-31T11:31:26;93814.00;;;19.12;44.15
11077;BME280;5591;42.626;23.380;2023-03-31T11:34:18;93805.03;;;19.18;44.27
11077;BME280;5591;42.626;23.380;2023-03-31T11:37:11;93808.03;;;19.84;43.09
11077;BME280;5591;42.626;23.380;2023-03-31T11:39:51;93793.47;;;19.07;44.28
11077;BME280;5591;42.626;23.380;2023-03-31T11:42:22;93795.00;;;19.03;44.30
11077;BME280;5591;42.626;23.380;2023-03-31T11:44:54;93794.34;;;19.39;44.00
11077;BME280;5591;42.626;23.380;2023-03-31T11:47:24;93777.22;;;19.62;43.89
11077;BME280;5591;42.626;23.380;2023-03-31T11:49:54;93786.69;;;19.48;43.84
11077;BME280;5591;42.626;23.380;2023-03-31T11:52:26;93801.56;;;19.75;43.20
11077;BME280;5591;42.626;23.380;2023-03-31T11:54:57;93787.44;;;19.43;43.61
11077;BME280;5591;42.626;23.380;2023-03-31T11:57:29;93795.31;;;19.91;43.01
11077;BME280;5591;42.626;23.380;2023-03-31T12:00:03;93763.63;;;19.95;43.40
11077;BME280;5591;42.626;23.380;2023-03-31T12:02:38;93761.00;;;20.00;43.11
11077;BME280;5591;42.626;23.380;2023-03-31T12:05:09;93771.91;;;19.93;43.97
11077;BME280;5591;42.626;23.380;2023-03-31T12:07:40;93764.00;;;20.03;43.42
11077;BME280;5591;42.626;23.380;2023-03-31T12:10:18;93763.63;;;19.95;43.67
11077;BME280;5591;42.626;23.380;2023-03-31T12:12:49;93750.41;;;21.42;41.86
11077;BME280;5591;42.626;23.380;2023-03-31T12:15:21;93739.25;;;21.90;40.70
11077;BME280;5591;42.626;23.380;2023-03-31T12:17:54;93744.59;;;21.70;41.57
11077;BME280;5591;42.626;23.380;2023-03-31T12:20:28;93732.75;;;21.11;41.73
11077;BME280;5591;42.626;23.380;2023-03-31T12:22:57;93758.66;;;22.51;39.93
11077;BME280;5591;42.626;23.380;2023-03-31T12:25:34;93748.34;;;20.68;42.12
11077;BME280;5591;42.626;23.380;2023-03-31T12:28:05;93762.44;;;21.35;41.43
11077;BME280;5591;42.626;23.380;2023-03-31T12:30:34;93760.19;;;20.87;41.89
11077;BME280;5591;42.626;23.380;2023-03-31T12:33:06;93758.09;;;20.99;41.86
11077;BME280;5591;42.626;23.380;2023-03-31T12:35:46;93735.28;;;20.76;41.80
11077;BME280;5591;42.626;23.380;2023-03-31T12:38:26;93745.25;;;19.93;43.11
11077;BME280;5591;42.626;23.380;2023-03-31T12:41:02;93743.25;;;20.66;42.42
11077;BME280;5591;42.626;23.380;2023-03-31T12:43:56;93723.13;;;21.00;41.95
11077;BME280;5591;42.626;23.380;2023-03-31T12:46:38;93746.41;;;21.45;41.06
11077;BME280;5591;42.626;23.380;2023-03-31T12:49:20;93723.44;;;22.09;39.99
11077;BME280;5591;42.626;23.380;2023-03-31T12:51:58;93722.66;;;21.93;40.32
11077;BME280;5591;42.626;23.380;2023-03-31T12:54:52;93706.88;;;22.07;40.05
11077;BME280;5591;42.626;23.380;2023-03-31T12:57:23;93704.53;;;22.79;38.74
11077;BME280;5591;42.626;23.380;2023-03-31T13:00:24;93696.53;;;22.69;39.50
11077;BME280;5591;42.626;23.380;2023-03-31T13:09:47;93657.94;;;27.38;33.35
11077;BME280;5591;42.626;23.380;2023-03-31T13:12:19;93651.00;;;27.67;32.47
11077;BME280;5591;42.626;23.380;2023-03-31T13:14:48;93659.38;;;26.14;34.27
11077;BME280;5591;42.626;23.380;2023-03-31T13:17:23;93650.59;;;28.26;32.09
11077;BME280;5591;42.626;23.380;2023-03-31T13:19:52;93556.63;;;29.09;29.98
11077;BME280;5591;42.626;23.380;2023-03-31T13:22:30;93630.09;;;29.88;30.13
11077;BME280;5591;42.626;23.380;2023-03-31T13:25:37;93622.16;;;28.29;31.27
11077;BME280;5591;42.626;23.380;2023-03-31T13:28:14;93611.72;;;28.74;31.16
11077;BME280;5591;42.626;23.380;2023-03-31T13:31:03;93597.66;;;29.71;29.66
11077;BME280;5591;42.626;23.380;2023-03-31T13:33:33;93597.16;;;29.43;29.94
11077;BME280;5591;42.626;23.380;2023-03-31T13:36:36;93593.97;;;30.76;29.01
11077;BME280;5591;42.626;23.380;2023-03-31T13:39:32;93588.41;;;29.46;30.25
11077;BME280;5591;42.626;23.380;2023-03-31T13:42:19;93580.50;;;32.22;27.56